Terminal Aerodrome Forecast
Issued by NWS Lake Charles, LA

Home | Current Version | Previous Version | Text Only | Print | Product List | Glossary On
Versions: 1 2 3 4 5 6 7 8 9 10 11 12 13
000
FTUS44 KLCH 191133
TAFLFT
TAF
KLFT 191133Z 1912/2012 VRB04KT P6SM SKC
     FM191900 35007KT P6SM VCTS SCT035CB SCT250
     FM200000 VRB04KT P6SM FEW050=

USA.gov is the U.S. government's official web portal to all federal, state and local government web resources and services.